sensor_id;sensor_type;location;lat;lon;timestamp;P1;durP1;ratioP1;P2;durP2;ratioP2
56943;SDS011;42848;42.524;12.052;2022-11-30T00:01:18;10.73;;;5.38;;
56943;SDS011;42848;42.524;12.052;2022-11-30T00:03:46;9.38;;;5.43;;
56943;SDS011;42848;42.524;12.052;2022-11-30T00:06:13;10.23;;;5.75;;
56943;SDS011;42848;42.524;12.052;2022-11-30T00:08:39;9.23;;;5.45;;
56943;SDS011;42848;42.524;12.052;2022-11-30T00:11:06;9.50;;;5.60;;
56943;SDS011;42848;42.524;12.052;2022-11-30T00:13:35;9.75;;;5.78;;
56943;SDS011;42848;42.524;12.052;2022-11-30T00:16:01;10.43;;;5.88;;
56943;SDS011;42848;42.524;12.052;2022-11-30T00:18:28;8.63;;;5.38;;
56943;SDS011;42848;42.524;12.052;2022-11-30T00:20:53;8.82;;;5.40;;
56943;SDS011;42848;42.524;12.052;2022-11-30T00:23:21;9.40;;;5.68;;
56943;SDS011;42848;42.524;12.052;2022-11-30T00:25:47;10.48;;;5.78;;
56943;SDS011;42848;42.524;12.052;2022-11-30T00:28:12;10.75;;;5.78;;
56943;SDS011;42848;42.524;12.052;2022-11-30T00:30:38;10.70;;;5.57;;
56943;SDS011;42848;42.524;12.052;2022-11-30T00:33:03;10.02;;;5.78;;
56943;SDS011;42848;42.524;12.052;2022-11-30T00:35:29;7.97;;;5.38;;
56943;SDS011;42848;42.524;12.052;2022-11-30T00:37:56;9.40;;;5.65;;
56943;SDS011;42848;42.524;12.052;2022-11-30T00:40:21;8.55;;;5.50;;
56943;SDS011;42848;42.524;12.052;2022-11-30T00:42:47;9.45;;;5.43;;
56943;SDS011;42848;42.524;12.052;2022-11-30T00:45:13;8.60;;;5.30;;
56943;SDS011;42848;42.524;12.052;2022-11-30T00:47:38;9.23;;;5.32;;
56943;SDS011;42848;42.524;12.052;2022-11-30T00:50:04;10.13;;;5.63;;
56943;SDS011;42848;42.524;12.052;2022-11-30T00:52:30;8.65;;;5.50;;
56943;SDS011;42848;42.524;12.052;2022-11-30T00:54:56;8.85;;;5.40;;
56943;SDS011;42848;42.524;12.052;2022-11-30T00:57:21;9.38;;;5.22;;
56943;SDS011;42848;42.524;12.052;2022-11-30T00:59:47;9.02;;;5.38;;
56943;SDS011;42848;42.524;12.052;2022-11-30T01:02:13;10.00;;;5.60;;
56943;SDS011;42848;42.524;12.052;2022-11-30T01:04:39;9.80;;;5.30;;
56943;SDS011;42848;42.524;12.052;2022-11-30T01:07:05;9.57;;;5.40;;
56943;SDS011;42848;42.524;12.052;2022-11-30T01:09:30;9.13;;;5.38;;
56943;SDS011;42848;42.524;12.052;2022-11-30T01:11:56;9.13;;;5.88;;
56943;SDS011;42848;42.524;12.052;2022-11-30T01:14:22;10.25;;;5.95;;
56943;SDS011;42848;42.524;12.052;2022-11-30T01:16:47;9.57;;;5.63;;
56943;SDS011;42848;42.524;12.052;2022-11-30T01:19:14;10.68;;;6.28;;
56943;SDS011;42848;42.524;12.052;2022-11-30T01:21:39;9.88;;;5.65;;
56943;SDS011;42848;42.524;12.052;2022-11-30T01:24:05;9.85;;;6.05;;
56943;SDS011;42848;42.524;12.052;2022-11-30T01:26:31;10.85;;;6.45;;
56943;SDS011;42848;42.524;12.052;2022-11-30T01:28:57;10.40;;;6.47;;
56943;SDS011;42848;42.524;12.052;2022-11-30T01:31:23;11.60;;;6.35;;
56943;SDS011;42848;42.524;12.052;2022-11-30T01:33:52;10.13;;;6.15;;
56943;SDS011;42848;42.524;12.052;2022-11-30T01:36:20;10.15;;;5.95;;
56943;SDS011;42848;42.524;12.052;2022-11-30T01:38:50;9.80;;;5.82;;
56943;SDS011;42848;42.524;12.052;2022-11-30T01:41:19;10.32;;;6.20;;
56943;SDS011;42848;42.524;12.052;2022-11-30T01:43:57;11.18;;;6.47;;
56943;SDS011;42848;42.524;12.052;2022-11-30T01:49:22;10.68;;;6.32;;
56943;SDS011;42848;42.524;12.052;2022-11-30T01:51:59;10.82;;;6.57;;
56943;SDS011;42848;42.524;12.052;2022-11-30T01:54:39;11.75;;;7.22;;
56943;SDS011;42848;42.524;12.052;2022-11-30T01:57:23;11.82;;;7.00;;
56943;SDS011;42848;42.524;12.052;2022-11-30T01:59:54;11.38;;;6.70;;
56943;SDS011;42848;42.524;12.052;2022-11-30T02:02:25;10.95;;;6.75;;
56943;SDS011;42848;42.524;12.052;2022-11-30T02:04:58;11.30;;;6.72;;
56943;SDS011;42848;42.524;12.052;2022-11-30T02:07:24;11.68;;;6.75;;
56943;SDS011;42848;42.524;12.052;2022-11-30T02:09:51;11.85;;;6.88;;
56943;SDS011;42848;42.524;12.052;2022-11-30T02:12:26;11.55;;;6.97;;
56943;SDS011;42848;42.524;12.052;2022-11-30T02:15:18;12.05;;;6.70;;
56943;SDS011;42848;42.524;12.052;2022-11-30T02:20:40;11.77;;;6.15;;
56943;SDS011;42848;42.524;12.052;2022-11-30T02:31:53;10.60;;;6.30;;
56943;SDS011;42848;42.524;12.052;2022-11-30T02:34:28;12.55;;;6.93;;
56943;SDS011;42848;42.524;12.052;2022-11-30T02:36:57;11.55;;;6.47;;
56943;SDS011;42848;42.524;12.052;2022-11-30T02:39:25;10.50;;;6.38;;
56943;SDS011;42848;42.524;12.052;2022-11-30T02:41:51;10.80;;;6.53;;
56943;SDS011;42848;42.524;12.052;2022-11-30T02:44:16;11.40;;;6.30;;
56943;SDS011;42848;42.524;12.052;2022-11-30T02:52:23;11.90;;;6.30;;
56943;SDS011;42848;42.524;12.052;2022-11-30T02:54:51;10.70;;;6.20;;
56943;SDS011;42848;42.524;12.052;2022-11-30T02:57:18;10.68;;;6.63;;
56943;SDS011;42848;42.524;12.052;2022-11-30T02:59:44;11.48;;;6.50;;
56943;SDS011;42848;42.524;12.052;2022-11-30T03:02:09;10.00;;;6.05;;
56943;SDS011;42848;42.524;12.052;2022-11-30T03:04:35;11.35;;;6.50;;
56943;SDS011;42848;42.524;12.052;2022-11-30T03:07:01;12.60;;;6.60;;
56943;SDS011;42848;42.524;12.052;2022-11-30T03:09:27;11.35;;;6.40;;
56943;SDS011;42848;42.524;12.052;2022-11-30T03:11:52;13.30;;;7.00;;
56943;SDS011;42848;42.524;12.052;2022-11-30T03:14:18;11.15;;;6.65;;
56943;SDS011;42848;42.524;12.052;2022-11-30T03:16:44;12.02;;;6.72;;
56943;SDS011;42848;42.524;12.052;2022-11-30T03:19:09;10.65;;;6.68;;
56943;SDS011;42848;42.524;12.052;2022-11-30T03:21:35;9.98;;;6.32;;
56943;SDS011;42848;42.524;12.052;2022-11-30T03:24:01;11.32;;;6.78;;
56943;SDS011;42848;42.524;12.052;2022-11-30T03:26:26;11.90;;;6.50;;
56943;SDS011;42848;42.524;12.052;2022-11-30T03:28:52;11.70;;;6.53;;
56943;SDS011;42848;42.524;12.052;2022-11-30T03:31:18;12.07;;;6.63;;
56943;SDS011;42848;42.524;12.052;2022-11-30T03:33:43;13.05;;;6.85;;
56943;SDS011;42848;42.524;12.052;2022-11-30T03:36:10;11.32;;;6.68;;
56943;SDS011;42848;42.524;12.052;2022-11-30T03:38:36;11.90;;;6.85;;
56943;SDS011;42848;42.524;12.052;2022-11-30T03:41:03;12.35;;;7.07;;
56943;SDS011;42848;42.524;12.052;2022-11-30T03:43:31;11.48;;;6.47;;
56943;SDS011;42848;42.524;12.052;2022-11-30T03:45:57;11.23;;;6.75;;
56943;SDS011;42848;42.524;12.052;2022-11-30T03:48:23;13.90;;;6.95;;
56943;SDS011;42848;42.524;12.052;2022-11-30T03:50:49;11.32;;;6.63;;
56943;SDS011;42848;42.524;12.052;2022-11-30T03:53:18;12.05;;;6.75;;
56943;SDS011;42848;42.524;12.052;2022-11-30T03:55:50;11.40;;;6.32;;
56943;SDS011;42848;42.524;12.052;2022-11-30T03:58:20;10.98;;;7.05;;
56943;SDS011;42848;42.524;12.052;2022-11-30T04:00:47;12.80;;;6.80;;
56943;SDS011;42848;42.524;12.052;2022-11-30T04:03:12;12.40;;;7.13;;
56943;SDS011;42848;42.524;12.052;2022-11-30T04:05:38;11.90;;;6.93;;
56943;SDS011;42848;42.524;12.052;2022-11-30T04:08:03;11.88;;;6.80;;
56943;SDS011;42848;42.524;12.052;2022-11-30T04:10:29;11.10;;;6.82;;
56943;SDS011;42848;42.524;12.052;2022-11-30T04:12:55;12.32;;;6.90;;
56943;SDS011;42848;42.524;12.052;2022-11-30T04:15:20;11.65;;;6.93;;
56943;SDS011;42848;42.524;12.052;2022-11-30T04:17:46;11.63;;;6.72;;
56943;SDS011;42848;42.524;12.052;2022-11-30T04:20:12;11.32;;;6.55;;
56943;SDS011;42848;42.524;12.052;2022-11-30T04:22:38;10.98;;;6.60;;
56943;SDS011;42848;42.524;12.052;2022-11-30T04:25:04;10.65;;;6.57;;
56943;SDS011;42848;42.524;12.052;2022-11-30T04:27:30;11.95;;;6.68;;
56943;SDS011;42848;42.524;12.052;2022-11-30T04:29:56;11.32;;;6.78;;
56943;SDS011;42848;42.524;12.052;2022-11-30T04:32:21;12.05;;;6.60;;
56943;SDS011;42848;42.524;12.052;2022-11-30T04:34:47;10.90;;;6.68;;
56943;SDS011;42848;42.524;12.052;2022-11-30T04:37:13;10.68;;;6.30;;
56943;SDS011;42848;42.524;12.052;2022-11-30T04:39:38;10.68;;;6.57;;
56943;SDS011;42848;42.524;12.052;2022-11-30T04:42:04;12.18;;;6.90;;
56943;SDS011;42848;42.524;12.052;2022-11-30T04:44:29;12.60;;;6.82;;
56943;SDS011;42848;42.524;12.052;2022-11-30T04:46:55;11.02;;;6.38;;
56943;SDS011;42848;42.524;12.052;2022-11-30T04:49:21;12.15;;;6.68;;
56943;SDS011;42848;42.524;12.052;2022-11-30T04:51:46;11.40;;;6.72;;
56943;SDS011;42848;42.524;12.052;2022-11-30T04:54:12;11.52;;;6.43;;
56943;SDS011;42848;42.524;12.052;2022-11-30T04:56:38;11.23;;;6.53;;
56943;SDS011;42848;42.524;12.052;2022-11-30T04:59:03;10.93;;;6.80;;
56943;SDS011;42848;42.524;12.052;2022-11-30T05:01:29;11.80;;;6.90;;
56943;SDS011;42848;42.524;12.052;2022-11-30T05:03:54;12.20;;;6.78;;
56943;SDS011;42848;42.524;12.052;2022-11-30T05:06:23;11.57;;;6.38;;
56943;SDS011;42848;42.524;12.052;2022-11-30T05:08:49;12.68;;;7.47;;
56943;SDS011;42848;42.524;12.052;2022-11-30T05:11:15;14.52;;;7.60;;
56943;SDS011;42848;42.524;12.052;2022-11-30T05:13:40;12.82;;;7.30;;
56943;SDS011;42848;42.524;12.052;2022-11-30T05:16:06;13.52;;;7.57;;
56943;SDS011;42848;42.524;12.052;2022-11-30T05:18:34;12.20;;;7.22;;
56943;SDS011;42848;42.524;12.052;2022-11-30T05:21:00;12.60;;;7.35;;
56943;SDS011;42848;42.524;12.052;2022-11-30T05:23:26;12.55;;;7.40;;
56943;SDS011;42848;42.524;12.052;2022-11-30T05:25:52;12.75;;;7.47;;
56943;SDS011;42848;42.524;12.052;2022-11-30T05:28:18;13.13;;;7.50;;
56943;SDS011;42848;42.524;12.052;2022-11-30T05:30:44;13.48;;;7.30;;
56943;SDS011;42848;42.524;12.052;2022-11-30T05:33:10;13.70;;;8.15;;
56943;SDS011;42848;42.524;12.052;2022-11-30T05:35:36;16.20;;;9.90;;
56943;SDS011;42848;42.524;12.052;2022-11-30T05:38:02;14.77;;;8.90;;
56943;SDS011;42848;42.524;12.052;2022-11-30T05:40:28;15.52;;;8.20;;
56943;SDS011;42848;42.524;12.052;2022-11-30T05:42:57;15.05;;;8.20;;
56943;SDS011;42848;42.524;12.052;2022-11-30T05:45:24;14.95;;;8.90;;
56943;SDS011;42848;42.524;12.052;2022-11-30T05:47:50;15.98;;;8.90;;
56943;SDS011;42848;42.524;12.052;2022-11-30T05:50:16;16.23;;;9.63;;
56943;SDS011;42848;42.524;12.052;2022-11-30T05:52:42;20.35;;;10.85;;
56943;SDS011;42848;42.524;12.052;2022-11-30T05:55:07;13.73;;;8.00;;
56943;SDS011;42848;42.524;12.052;2022-11-30T05:57:36;13.25;;;7.70;;
56943;SDS011;42848;42.524;12.052;2022-11-30T06:00:04;21.00;;;11.02;;
56943;SDS011;42848;42.524;12.052;2022-11-30T06:02:31;16.45;;;8.85;;
56943;SDS011;42848;42.524;12.052;2022-11-30T06:04:57;17.85;;;10.57;;
56943;SDS011;42848;42.524;12.052;2022-11-30T06:07:22;19.45;;;10.77;;
56943;SDS011;42848;42.524;12.052;2022-11-30T06:09:48;14.40;;;8.23;;
56943;SDS011;42848;42.524;12.052;2022-11-30T06:12:14;16.65;;;9.57;;
56943;SDS011;42848;42.524;12.052;2022-11-30T06:14:39;15.10;;;8.50;;
56943;SDS011;42848;42.524;12.052;2022-11-30T06:17:05;18.27;;;10.05;;
56943;SDS011;42848;42.524;12.052;2022-11-30T06:19:31;16.48;;;8.77;;
56943;SDS011;42848;42.524;12.052;2022-11-30T06:21:56;15.88;;;9.55;;
56943;SDS011;42848;42.524;12.052;2022-11-30T06:24:22;16.55;;;8.82;;
56943;SDS011;42848;42.524;12.052;2022-11-30T06:26:47;17.92;;;10.10;;
56943;SDS011;42848;42.524;12.052;2022-11-30T06:29:13;21.02;;;11.75;;
56943;SDS011;42848;42.524;12.052;2022-11-30T06:31:39;18.20;;;9.70;;
56943;SDS011;42848;42.524;12.052;2022-11-30T06:34:04;12.55;;;7.97;;
56943;SDS011;42848;42.524;12.052;2022-11-30T06:36:30;20.73;;;11.73;;
56943;SDS011;42848;42.524;12.052;2022-11-30T06:38:56;15.98;;;8.85;;
56943;SDS011;42848;42.524;12.052;2022-11-30T06:41:22;13.18;;;8.05;;
56943;SDS011;42848;42.524;12.052;2022-11-30T06:43:48;13.65;;;7.80;;
56943;SDS011;42848;42.524;12.052;2022-11-30T06:46:13;14.45;;;7.90;;
56943;SDS011;42848;42.524;12.052;2022-11-30T06:48:39;14.52;;;8.20;;
56943;SDS011;42848;42.524;12.052;2022-11-30T06:51:05;11.95;;;7.00;;
56943;SDS011;42848;42.524;12.052;2022-11-30T06:53:32;13.93;;;7.97;;
56943;SDS011;42848;42.524;12.052;2022-11-30T06:55:58;15.38;;;8.45;;
56943;SDS011;42848;42.524;12.052;2022-11-30T06:58:23;13.63;;;8.05;;
56943;SDS011;42848;42.524;12.052;2022-11-30T07:00:49;14.45;;;8.10;;
56943;SDS011;42848;42.524;12.052;2022-11-30T07:03:14;12.95;;;7.28;;
56943;SDS011;42848;42.524;12.052;2022-11-30T07:05:44;14.30;;;7.38;;
56943;SDS011;42848;42.524;12.052;2022-11-30T07:08:14;12.98;;;7.43;;
56943;SDS011;42848;42.524;12.052;2022-11-30T07:10:41;12.95;;;7.57;;
56943;SDS011;42848;42.524;12.052;2022-11-30T07:13:09;12.30;;;7.30;;
56943;SDS011;42848;42.524;12.052;2022-11-30T07:15:39;14.18;;;7.38;;
56943;SDS011;42848;42.524;12.052;2022-11-30T07:18:06;13.48;;;7.30;;
56943;SDS011;42848;42.524;12.052;2022-11-30T07:20:32;13.60;;;8.05;;
56943;SDS011;42848;42.524;12.052;2022-11-30T07:22:58;12.82;;;7.47;;
56943;SDS011;42848;42.524;12.052;2022-11-30T07:25:44;13.07;;;7.60;;
56943;SDS011;42848;42.524;12.052;2022-11-30T07:28:28;14.60;;;7.78;;
56943;SDS011;42848;42.524;12.052;2022-11-30T07:30:53;13.50;;;7.53;;
56943;SDS011;42848;42.524;12.052;2022-11-30T07:33:19;14.02;;;8.23;;
56943;SDS011;42848;42.524;12.052;2022-11-30T07:35:45;12.55;;;7.32;;
56943;SDS011;42848;42.524;12.052;2022-11-30T07:38:11;14.50;;;7.75;;
56943;SDS011;42848;42.524;12.052;2022-11-30T07:40:37;12.68;;;6.80;;
56943;SDS011;42848;42.524;12.052;2022-11-30T07:43:02;14.35;;;8.02;;
56943;SDS011;42848;42.524;12.052;2022-11-30T07:45:28;14.05;;;7.47;;
56943;SDS011;42848;42.524;12.052;2022-11-30T07:47:53;13.68;;;7.32;;
56943;SDS011;42848;42.524;12.052;2022-11-30T07:50:19;11.88;;;6.95;;
56943;SDS011;42848;42.524;12.052;2022-11-30T07:52:45;12.80;;;7.72;;
56943;SDS011;42848;42.524;12.052;2022-11-30T07:55:10;14.80;;;7.85;;
56943;SDS011;42848;42.524;12.052;2022-11-30T07:57:36;12.10;;;7.43;;
56943;SDS011;42848;42.524;12.052;2022-11-30T08:00:02;14.70;;;7.78;;
56943;SDS011;42848;42.524;12.052;2022-11-30T08:02:28;13.93;;;7.43;;
56943;SDS011;42848;42.524;12.052;2022-11-30T08:04:53;12.45;;;7.32;;
56943;SDS011;42848;42.524;12.052;2022-11-30T08:07:22;12.50;;;7.30;;
56943;SDS011;42848;42.524;12.052;2022-11-30T08:09:48;12.20;;;7.43;;
56943;SDS011;42848;42.524;12.052;2022-11-30T08:12:14;13.07;;;7.65;;
56943;SDS011;42848;42.524;12.052;2022-11-30T08:14:40;12.43;;;7.07;;
56943;SDS011;42848;42.524;12.052;2022-11-30T08:17:07;12.30;;;6.80;;
56943;SDS011;42848;42.524;12.052;2022-11-30T08:19:33;15.43;;;8.35;;
56943;SDS011;42848;42.524;12.052;2022-11-30T08:21:59;14.73;;;7.85;;
56943;SDS011;42848;42.524;12.052;2022-11-30T08:24:25;15.85;;;9.57;;
56943;SDS011;42848;42.524;12.052;2022-11-30T08:26:50;20.65;;;10.85;;
56943;SDS011;42848;42.524;12.052;2022-11-30T08:29:17;14.70;;;8.60;;
56943;SDS011;42848;42.524;12.052;2022-11-30T08:31:43;12.77;;;7.90;;
56943;SDS011;42848;42.524;12.052;2022-11-30T08:34:10;13.52;;;8.00;;
56943;SDS011;42848;42.524;12.052;2022-11-30T08:36:38;24.70;;;13.55;;
56943;SDS011;42848;42.524;12.052;2022-11-30T08:39:05;24.38;;;13.63;;
56943;SDS011;42848;42.524;12.052;2022-11-30T08:41:33;16.73;;;10.38;;
56943;SDS011;42848;42.524;12.052;2022-11-30T08:43:59;18.00;;;10.93;;
56943;SDS011;42848;42.524;12.052;2022-11-30T08:46:25;12.85;;;7.78;;
56943;SDS011;42848;42.524;12.052;2022-11-30T08:48:52;13.18;;;7.20;;
56943;SDS011;42848;42.524;12.052;2022-11-30T08:51:18;14.48;;;8.55;;
56943;SDS011;42848;42.524;12.052;2022-11-30T08:53:45;12.18;;;7.20;;
56943;SDS011;42848;42.524;12.052;2022-11-30T08:56:19;12.10;;;7.45;;
56943;SDS011;42848;42.524;12.052;2022-11-30T08:58:47;11.88;;;7.18;;
56943;SDS011;42848;42.524;12.052;2022-11-30T09:01:14;12.32;;;7.45;;
56943;SDS011;42848;42.524;12.052;2022-11-30T09:03:42;13.10;;;7.88;;
56943;SDS011;42848;42.524;12.052;2022-11-30T09:06:13;12.23;;;7.47;;
56943;SDS011;42848;42.524;12.052;2022-11-30T09:08:41;14.15;;;8.07;;
56943;SDS011;42848;42.524;12.052;2022-11-30T09:11:11;12.48;;;7.03;;
56943;SDS011;42848;42.524;12.052;2022-11-30T09:13:40;14.68;;;8.32;;
56943;SDS011;42848;42.524;12.052;2022-11-30T09:16:06;12.43;;;7.15;;
56943;SDS011;42848;42.524;12.052;2022-11-30T09:18:33;12.63;;;6.97;;
56943;SDS011;42848;42.524;12.052;2022-11-30T09:20:59;14.15;;;7.80;;
56943;SDS011;42848;42.524;12.052;2022-11-30T09:23:26;19.20;;;8.88;;
56943;SDS011;42848;42.524;12.052;2022-11-30T09:25:56;13.02;;;7.45;;
56943;SDS011;42848;42.524;12.052;2022-11-30T09:28:23;14.98;;;8.10;;
56943;SDS011;42848;42.524;12.052;2022-11-30T09:30:49;13.63;;;7.47;;
56943;SDS011;42848;42.524;12.052;2022-11-30T09:33:15;12.48;;;7.28;;
56943;SDS011;42848;42.524;12.052;2022-11-30T09:35:41;16.63;;;9.70;;
56943;SDS011;42848;42.524;12.052;2022-11-30T09:38:07;11.68;;;6.82;;
56943;SDS011;42848;42.524;12.052;2022-11-30T09:40:33;16.20;;;9.35;;
56943;SDS011;42848;42.524;12.052;2022-11-30T09:50:42;14.50;;;8.18;;
56943;SDS011;42848;42.524;12.052;2022-11-30T09:53:54;13.35;;;8.48;;
56943;SDS011;42848;42.524;12.052;2022-11-30T09:56:28;16.00;;;9.18;;
56943;SDS011;42848;42.524;12.052;2022-11-30T09:58:56;21.50;;;9.43;;
56943;SDS011;42848;42.524;12.052;2022-11-30T10:01:26;12.93;;;7.60;;
56943;SDS011;42848;42.524;12.052;2022-11-30T10:03:53;15.30;;;7.75;;
56943;SDS011;42848;42.524;12.052;2022-11-30T10:06:25;13.85;;;8.75;;
56943;SDS011;42848;42.524;12.052;2022-11-30T10:09:06;18.52;;;10.27;;
56943;SDS011;42848;42.524;12.052;2022-11-30T10:15:01;13.10;;;7.40;;
56943;SDS011;42848;42.524;12.052;2022-11-30T10:20:40;22.30;;;11.05;;
56943;SDS011;42848;42.524;12.052;2022-11-30T10:23:22;16.02;;;8.40;;
56943;SDS011;42848;42.524;12.052;2022-11-30T10:26:07;21.02;;;10.95;;
56943;SDS011;42848;42.524;12.052;2022-11-30T10:31:19;16.00;;;8.82;;
56943;SDS011;42848;42.524;12.052;2022-11-30T10:33:57;15.35;;;9.45;;
56943;SDS011;42848;42.524;12.052;2022-11-30T10:37:32;13.70;;;8.65;;
56943;SDS011;42848;42.524;12.052;2022-11-30T10:42:08;15.57;;;9.35;;
56943;SDS011;42848;42.524;12.052;2022-11-30T10:44:39;13.50;;;7.90;;
56943;SDS011;42848;42.524;12.052;2022-11-30T10:47:13;12.77;;;7.70;;
56943;SDS011;42848;42.524;12.052;2022-11-30T10:49:45;14.85;;;8.20;;
56943;SDS011;42848;42.524;12.052;2022-11-30T10:52:15;10.75;;;6.82;;
56943;SDS011;42848;42.524;12.052;2022-11-30T10:54:45;12.35;;;7.10;;
56943;SDS011;42848;42.524;12.052;2022-11-30T10:57:13;12.77;;;7.32;;
56943;SDS011;42848;42.524;12.052;2022-11-30T11:02:33;15.32;;;9.30;;
56943;SDS011;42848;42.524;12.052;2022-11-30T11:05:41;11.88;;;7.25;;
56943;SDS011;42848;42.524;12.052;2022-11-30T11:13:13;11.45;;;6.78;;
56943;SDS011;42848;42.524;12.052;2022-11-30T11:16:18;15.05;;;8.65;;
56943;SDS011;42848;42.524;12.052;2022-11-30T11:21:46;11.98;;;6.65;;
56943;SDS011;42848;42.524;12.052;2022-11-30T11:24:14;12.75;;;7.93;;
56943;SDS011;42848;42.524;12.052;2022-11-30T11:26:49;13.23;;;7.57;;
56943;SDS011;42848;42.524;12.052;2022-11-30T11:29:27;10.07;;;6.43;;
56943;SDS011;42848;42.524;12.052;2022-11-30T11:32:08;9.98;;;6.43;;
56943;SDS011;42848;42.524;12.052;2022-11-30T11:34:45;12.35;;;7.68;;
56943;SDS011;42848;42.524;12.052;2022-11-30T11:37:18;11.05;;;7.15;;
56943;SDS011;42848;42.524;12.052;2022-11-30T11:42:41;11.35;;;6.65;;
56943;SDS011;42848;42.524;12.052;2022-11-30T11:45:18;9.85;;;6.20;;
56943;SDS011;42848;42.524;12.052;2022-11-30T11:47:47;10.35;;;6.35;;
56943;SDS011;42848;42.524;12.052;2022-11-30T11:50:41;9.50;;;6.35;;
56943;SDS011;42848;42.524;12.052;2022-11-30T11:53:43;10.98;;;6.65;;
56943;SDS011;42848;42.524;12.052;2022-11-30T12:04:55;12.80;;;6.68;;
56943;SDS011;42848;42.524;12.052;2022-11-30T12:07:41;10.75;;;6.32;;
56943;SDS011;42848;42.524;12.052;2022-11-30T12:10:26;11.82;;;7.28;;
56943;SDS011;42848;42.524;12.052;2022-11-30T12:12:57;12.10;;;6.78;;
56943;SDS011;42848;42.524;12.052;2022-11-30T12:15:35;11.25;;;6.63;;
56943;SDS011;42848;42.524;12.052;2022-11-30T12:18:29;14.53;;;8.83;;
56943;SDS011;42848;42.524;12.052;2022-11-30T12:23:41;13.73;;;8.25;;
56943;SDS011;42848;42.524;12.052;2022-11-30T12:29:15;13.10;;;7.32;;
56943;SDS011;42848;42.524;12.052;2022-11-30T12:45:45;12.07;;;7.63;;
56943;SDS011;42848;42.524;12.052;2022-11-30T12:51:03;13.93;;;7.75;;
56943;SDS011;42848;42.524;12.052;2022-11-30T12:53:38;12.47;;;7.60;;
56943;SDS011;42848;42.524;12.052;2022-11-30T13:04:23;20.27;;;11.98;;
56943;SDS011;42848;42.524;12.052;2022-11-30T13:06:59;27.23;;;15.07;;
56943;SDS011;42848;42.524;12.052;2022-11-30T13:09:52;14.27;;;8.82;;
56943;SDS011;42848;42.524;12.052;2022-11-30T13:12:31;14.57;;;9.45;;
56943;SDS011;42848;42.524;12.052;2022-11-30T13:15:08;17.65;;;11.30;;
56943;SDS011;42848;42.524;12.052;2022-11-30T13:17:34;19.20;;;12.85;;
56943;SDS011;42848;42.524;12.052;2022-11-30T13:20:06;18.40;;;10.55;;
56943;SDS011;42848;42.524;12.052;2022-11-30T13:22:44;15.70;;;9.25;;
56943;SDS011;42848;42.524;12.052;2022-11-30T13:25:29;13.40;;;8.82;;
56943;SDS011;42848;42.524;12.052;2022-11-30T13:30:49;14.63;;;9.40;;
56943;SDS011;42848;42.524;12.052;2022-11-30T13:36:04;14.13;;;9.00;;
56943;SDS011;42848;42.524;12.052;2022-11-30T13:38:45;12.05;;;7.63;;
56943;SDS011;42848;42.524;12.052;2022-11-30T13:41:16;20.95;;;12.77;;
56943;SDS011;42848;42.524;12.052;2022-11-30T13:43:45;13.45;;;8.10;;
56943;SDS011;42848;42.524;12.052;2022-11-30T13:46:18;11.25;;;6.95;;
56943;SDS011;42848;42.524;12.052;2022-11-30T13:48:46;12.40;;;7.82;;
56943;SDS011;42848;42.524;12.052;2022-11-30T13:51:12;11.43;;;7.55;;
56943;SDS011;42848;42.524;12.052;2022-11-30T13:57:02;12.88;;;8.27;;
56943;SDS011;42848;42.524;12.052;2022-11-30T13:59:49;10.75;;;7.15;;
56943;SDS011;42848;42.524;12.052;2022-11-30T14:05:17;12.32;;;8.02;;
56943;SDS011;42848;42.524;12.052;2022-11-30T14:10:30;10.80;;;7.13;;
56943;SDS011;42848;42.524;12.052;2022-11-30T14:20:47;13.30;;;8.55;;
56943;SDS011;42848;42.524;12.052;2022-11-30T14:26:08;11.93;;;7.47;;
56943;SDS011;42848;42.524;12.052;2022-11-30T14:28:39;12.07;;;7.63;;
56943;SDS011;42848;42.524;12.052;2022-11-30T14:31:16;12.57;;;7.95;;
56943;SDS011;42848;42.524;12.052;2022-11-30T14:33:48;13.02;;;7.38;;
56943;SDS011;42848;42.524;12.052;2022-11-30T14:36:34;9.95;;;6.90;;
56943;SDS011;42848;42.524;12.052;2022-11-30T14:39:20;14.35;;;9.15;;
56943;SDS011;42848;42.524;12.052;2022-11-30T14:41:48;13.15;;;7.60;;
56943;SDS011;42848;42.524;12.052;2022-11-30T14:44:14;17.88;;;10.77;;
56943;SDS011;42848;42.524;12.052;2022-11-30T14:46:40;13.77;;;8.95;;
56943;SDS011;42848;42.524;12.052;2022-11-30T14:49:10;11.50;;;7.60;;
56943;SDS011;42848;42.524;12.052;2022-11-30T14:51:39;16.75;;;10.52;;
56943;SDS011;42848;42.524;12.052;2022-11-30T14:56:41;12.00;;;7.80;;
56943;SDS011;42848;42.524;12.052;2022-11-30T14:59:56;13.55;;;8.05;;
56943;SDS011;42848;42.524;12.052;2022-11-30T15:02:06;12.20;;;7.10;;
56943;SDS011;42848;42.524;12.052;2022-11-30T15:04:51;13.25;;;7.93;;
56943;SDS011;42848;42.524;12.052;2022-11-30T15:07:18;10.88;;;7.57;;
56943;SDS011;42848;42.524;12.052;2022-11-30T15:09:46;11.95;;;7.32;;
56943;SDS011;42848;42.524;12.052;2022-11-30T15:12:18;12.18;;;7.93;;
56943;SDS011;42848;42.524;12.052;2022-11-30T15:17:51;13.63;;;8.02;;
56943;SDS011;42848;42.524;12.052;2022-11-30T15:22:50;12.80;;;8.10;;
56943;SDS011;42848;42.524;12.052;2022-11-30T15:25:17;14.02;;;8.80;;
56943;SDS011;42848;42.524;12.052;2022-11-30T15:27:45;14.98;;;9.18;;
56943;SDS011;42848;42.524;12.052;2022-11-30T15:30:14;12.00;;;7.55;;
56943;SDS011;42848;42.524;12.052;2022-11-30T15:32:45;15.52;;;8.13;;
56943;SDS011;42848;42.524;12.052;2022-11-30T15:35:17;10.85;;;7.55;;
56943;SDS011;42848;42.524;12.052;2022-11-30T15:37:45;13.00;;;8.18;;
56943;SDS011;42848;42.524;12.052;2022-11-30T15:40:16;11.45;;;7.57;;
56943;SDS011;42848;42.524;12.052;2022-11-30T15:42:49;13.15;;;7.65;;
56943;SDS011;42848;42.524;12.052;2022-11-30T15:47:48;12.25;;;8.25;;
56943;SDS011;42848;42.524;12.052;2022-11-30T15:52:57;13.98;;;7.55;;
56943;SDS011;42848;42.524;12.052;2022-11-30T15:55:42;13.88;;;8.45;;
56943;SDS011;42848;42.524;12.052;2022-11-30T15:58:26;13.32;;;8.75;;
56943;SDS011;42848;42.524;12.052;2022-11-30T16:01:01;17.42;;;11.35;;
56943;SDS011;42848;42.524;12.052;2022-11-30T16:03:56;11.70;;;7.75;;
56943;SDS011;42848;42.524;12.052;2022-11-30T16:06:24;15.00;;;9.38;;
56943;SDS011;42848;42.524;12.052;2022-11-30T16:09:29;15.00;;;9.32;;
56943;SDS011;42848;42.524;12.052;2022-11-30T16:11:59;14.07;;;9.35;;
56943;SDS011;42848;42.524;12.052;2022-11-30T16:14:26;17.58;;;10.27;;
56943;SDS011;42848;42.524;12.052;2022-11-30T16:16:52;11.90;;;7.90;;
56943;SDS011;42848;42.524;12.052;2022-11-30T16:19:19;13.93;;;8.18;;
56943;SDS011;42848;42.524;12.052;2022-11-30T16:21:45;17.70;;;11.13;;
56943;SDS011;42848;42.524;12.052;2022-11-30T16:24:12;14.55;;;9.35;;
56943;SDS011;42848;42.524;12.052;2022-11-30T16:26:38;15.15;;;8.95;;
56943;SDS011;42848;42.524;12.052;2022-11-30T16:29:04;13.80;;;8.40;;
56943;SDS011;42848;42.524;12.052;2022-11-30T16:31:30;14.00;;;8.68;;
56943;SDS011;42848;42.524;12.052;2022-11-30T16:33:56;19.50;;;11.45;;
56943;SDS011;42848;42.524;12.052;2022-11-30T16:36:21;23.08;;;12.82;;
56943;SDS011;42848;42.524;12.052;2022-11-30T16:38:48;26.38;;;12.98;;
56943;SDS011;42848;42.524;12.052;2022-11-30T16:43:51;24.20;;;12.60;;
56943;SDS011;42848;42.524;12.052;2022-11-30T16:46:22;16.23;;;9.13;;
56943;SDS011;42848;42.524;12.052;2022-11-30T16:48:49;21.90;;;12.18;;